OMD2HM LGAV-LBSF
Flight info
| Callsign | OMD2HM |
|---|---|
| Flight time | N/A |
| Altitude | 36000 |
| Route | KRO UT162 KOROS UN133 PEREN UL863 EVIVI DCT VANET |
| Aircraft | A320/M-SDE3FGHIRWY/LB1 |
Departure
| Time | 2026-05-06 10:19 |
|---|---|
| Airport | Athens Eleftherios Venizelos International Airport (LGAV) |
Arrival
| Time | N/A |
|---|---|
| Airport | Sofia Airport (LBSF) |
| Time | Latitude | Longitude | Altitude | Speed | Heading |
|---|---|---|---|---|---|
| 2026-05-06 09:39 | 37.93170 | 23.94321 | 319 ft | 0 kts | 217° |
| 2026-05-06 10:08 | 37.93179 | 23.94329 | 319 ft | 2 kts | 212° |
| 2026-05-06 10:08 | 37.93189 | 23.94335 | 319 ft | 3 kts | 199° |
| 2026-05-06 10:08 | 37.93208 | 23.94340 | 319 ft | 3 kts | 182° |
| 2026-05-06 10:09 | 37.93227 | 23.94339 | 319 ft | 2 kts | 171° |
| 2026-05-06 10:09 | 37.93242 | 23.94335 | 319 ft | 3 kts | 171° |
| 2026-05-06 10:09 | 37.93262 | 23.94331 | 319 ft | 3 kts | 168° |
| 2026-05-06 10:09 | 37.93270 | 23.94329 | 319 ft | 0 kts | 161° |
| 2026-05-06 10:12 | 37.93268 | 23.94329 | 319 ft | 1 kts | 161° |
| 2026-05-06 10:12 | 37.93247 | 23.94349 | 319 ft | 6 kts | 129° |
| 2026-05-06 10:12 | 37.93210 | 23.94410 | 319 ft | 10 kts | 127° |
| 2026-05-06 10:13 | 37.93166 | 23.94486 | 319 ft | 12 kts | 126° |
| 2026-05-06 10:13 | 37.93115 | 23.94572 | 319 ft | 13 kts | 126° |
| 2026-05-06 10:13 | 37.93060 | 23.94665 | 319 ft | 12 kts | 135° |
| 2026-05-06 10:13 | 37.92986 | 23.94651 | 319 ft | 13 kts | 216° |
| 2026-05-06 10:14 | 37.92911 | 23.94579 | 319 ft | 14 kts | 217° |
| 2026-05-06 10:14 | 37.92829 | 23.94500 | 319 ft | 15 kts | 216° |
| 2026-05-06 10:14 | 37.92741 | 23.94418 | 319 ft | 16 kts | 217° |
| 2026-05-06 10:14 | 37.92657 | 23.94338 | 319 ft | 14 kts | 217° |
| 2026-05-06 10:15 | 37.92598 | 23.94283 | 319 ft | 5 kts | 209° |
| 2026-05-06 10:15 | 37.92569 | 23.94284 | 319 ft | 5 kts | 158° |
| 2026-05-06 10:15 | 37.92545 | 23.94310 | 319 ft | 4 kts | 129° |
| 2026-05-06 10:15 | 37.92532 | 23.94332 | 319 ft | 2 kts | 127° |
| 2026-05-06 10:16 | 37.92531 | 23.94334 | 319 ft | 0 kts | 127° |
| 2026-05-06 10:16 | 37.92523 | 23.94347 | 319 ft | 5 kts | 127° |
| 2026-05-06 10:16 | 37.92496 | 23.94392 | 319 ft | 7 kts | 128° |
| 2026-05-06 10:17 | 37.92476 | 23.94427 | 319 ft | 4 kts | 105° |
| 2026-05-06 10:17 | 37.92490 | 23.94456 | 319 ft | 3 kts | 43° |
| 2026-05-06 10:17 | 37.92497 | 23.94463 | 319 ft | 2 kts | 37° |
| 2026-05-06 10:17 | 37.92510 | 23.94476 | 319 ft | 3 kts | 37° |
| 2026-05-06 10:18 | 37.92581 | 23.94544 | 319 ft | 34 kts | 37° |
| 2026-05-06 10:18 | 37.92924 | 23.94872 | 319 ft | 88 kts | 34° |
| 2026-05-06 10:18 | 37.93558 | 23.95472 | 319 ft | 138 kts | 37° |
| 2026-05-06 10:18 | 37.94439 | 23.96302 | 479 ft | 167 kts | 38° |
| 2026-05-06 10:19 | 37.95344 | 23.97170 | 1198 ft | 162 kts | 39° |
| 2026-05-06 10:19 | 37.96248 | 23.98043 | 1844 ft | 164 kts | 39° |
| 2026-05-06 10:19 | 37.97189 | 23.98961 | 2326 ft | 178 kts | 40° |
| 2026-05-06 10:19 | 37.97861 | 24.00310 | 2718 ft | 191 kts | 79° |
| 2026-05-06 10:20 | 37.97924 | 24.02029 | 3213 ft | 201 kts | 91° |
| 2026-05-06 10:20 | 37.97909 | 24.03852 | 3615 ft | 222 kts | 91° |
| 2026-05-06 10:20 | 37.98090 | 24.05909 | 4084 ft | 248 kts | 69° |
| 2026-05-06 10:20 | 37.99103 | 24.07740 | 4813 ft | 265 kts | 40° |
| 2026-05-06 10:21 | 38.00601 | 24.09155 | 5772 ft | 272 kts | 28° |
| 2026-05-06 10:21 | 38.02405 | 24.09852 | 6786 ft | 274 kts | 3° |
| 2026-05-06 10:21 | 38.04300 | 24.09561 | 7788 ft | 277 kts | 346° |
| 2026-05-06 10:21 | 38.06188 | 24.09021 | 8761 ft | 280 kts | 347° |
| 2026-05-06 10:22 | 38.08102 | 24.08476 | 9691 ft | 284 kts | 347° |
| 2026-05-06 10:22 | 38.10038 | 24.07934 | 10559 ft | 289 kts | 347° |
| 2026-05-06 10:22 | 38.12056 | 24.07389 | 11134 ft | 304 kts | 348° |
| 2026-05-06 10:22 | 38.14197 | 24.06929 | 11631 ft | 321 kts | 351° |
| 2026-05-06 10:23 | 38.16438 | 24.06529 | 12088 ft | 337 kts | 351° |
| 2026-05-06 10:23 | 38.18804 | 24.06137 | 12707 ft | 347 kts | 352° |
| 2026-05-06 10:23 | 38.21214 | 24.05739 | 13540 ft | 350 kts | 351° |
| 2026-05-06 10:23 | 38.23630 | 24.05333 | 14382 ft | 352 kts | 351° |
| 2026-05-06 10:24 | 38.26064 | 24.04911 | 15166 ft | 354 kts | 350° |
| 2026-05-06 10:24 | 38.28514 | 24.04473 | 15900 ft | 357 kts | 349° |
| 2026-05-06 10:24 | 38.30978 | 24.04021 | 16598 ft | 360 kts | 349° |
| 2026-05-06 10:24 | 38.33468 | 24.03562 | 17274 ft | 363 kts | 349° |
| 2026-05-06 10:25 | 38.35943 | 24.03110 | 17927 ft | 365 kts | 349° |
| 2026-05-06 10:25 | 38.38465 | 24.02652 | 18566 ft | 368 kts | 349° |
| 2026-05-06 10:25 | 38.41010 | 24.02191 | 19187 ft | 370 kts | 349° |
| 2026-05-06 10:25 | 38.43570 | 24.01728 | 19779 ft | 373 kts | 349° |
| 2026-05-06 10:26 | 38.46153 | 24.01256 | 20352 ft | 376 kts | 349° |
| 2026-05-06 10:26 | 38.48751 | 24.00778 | 20907 ft | 379 kts | 349° |
| 2026-05-06 10:26 | 38.51375 | 24.00298 | 21450 ft | 382 kts | 349° |
| 2026-05-06 10:26 | 38.54017 | 23.99818 | 21971 ft | 385 kts | 349° |
| 2026-05-06 10:27 | 38.56682 | 23.99331 | 22485 ft | 388 kts | 349° |
| 2026-05-06 10:27 | 38.59333 | 23.98842 | 22991 ft | 391 kts | 349° |
| 2026-05-06 10:27 | 38.62032 | 23.98346 | 23498 ft | 394 kts | 349° |
| 2026-05-06 10:27 | 38.64754 | 23.97848 | 23995 ft | 396 kts | 349° |
| 2026-05-06 10:28 | 38.67491 | 23.97352 | 24470 ft | 399 kts | 349° |
| 2026-05-06 10:28 | 38.70254 | 23.96847 | 24926 ft | 402 kts | 349° |
| 2026-05-06 10:28 | 38.73025 | 23.96335 | 25405 ft | 404 kts | 349° |
| 2026-05-06 10:28 | 38.75814 | 23.95822 | 25864 ft | 405 kts | 349° |
| 2026-05-06 10:29 | 38.78611 | 23.95308 | 26275 ft | 408 kts | 349° |
| 2026-05-06 10:29 | 38.81431 | 23.94792 | 26646 ft | 410 kts | 349° |
| 2026-05-06 10:29 | 38.84259 | 23.94273 | 27009 ft | 412 kts | 349° |
| 2026-05-06 10:29 | 38.87067 | 23.93755 | 27354 ft | 414 kts | 349° |
| 2026-05-06 10:30 | 38.89918 | 23.93228 | 27688 ft | 415 kts | 349° |
| 2026-05-06 10:30 | 38.92787 | 23.92694 | 28017 ft | 417 kts | 349° |
| 2026-05-06 10:30 | 38.95663 | 23.92161 | 28346 ft | 419 kts | 349° |
| 2026-05-06 10:30 | 38.98560 | 23.91626 | 28692 ft | 421 kts | 349° |
| 2026-05-06 10:31 | 39.01464 | 23.91093 | 29062 ft | 423 kts | 349° |
| 2026-05-06 10:31 | 39.04385 | 23.90556 | 29446 ft | 424 kts | 349° |
| 2026-05-06 10:31 | 39.07305 | 23.90017 | 29862 ft | 424 kts | 349° |
| 2026-05-06 10:31 | 39.10219 | 23.89476 | 30352 ft | 422 kts | 349° |
| 2026-05-06 10:32 | 39.13111 | 23.88933 | 30851 ft | 419 kts | 349° |
| 2026-05-06 10:32 | 39.15952 | 23.88397 | 31306 ft | 417 kts | 349° |
| 2026-05-06 10:32 | 39.18815 | 23.87863 | 31732 ft | 416 kts | 349° |
| 2026-05-06 10:32 | 39.21677 | 23.87334 | 32156 ft | 414 kts | 349° |
| 2026-05-06 10:33 | 39.24522 | 23.86810 | 32591 ft | 413 kts | 349° |
| 2026-05-06 10:33 | 39.27362 | 23.86285 | 33029 ft | 411 kts | 349° |
| 2026-05-06 10:33 | 39.30183 | 23.85761 | 33461 ft | 409 kts | 349° |
| 2026-05-06 10:33 | 39.32998 | 23.85237 | 33892 ft | 407 kts | 349° |
| 2026-05-06 10:34 | 39.35795 | 23.84713 | 34304 ft | 406 kts | 349° |
| 2026-05-06 10:34 | 39.38587 | 23.84187 | 34703 ft | 404 kts | 349° |
| 2026-05-06 10:34 | 39.41366 | 23.83664 | 35077 ft | 404 kts | 348° |
| 2026-05-06 10:34 | 39.44111 | 23.83148 | 35426 ft | 403 kts | 348° |
| 2026-05-06 10:35 | 39.46881 | 23.82627 | 35779 ft | 403 kts | 348° |
| 2026-05-06 10:35 | 39.49659 | 23.82105 | 36021 ft | 403 kts | 348° |
| 2026-05-06 10:35 | 39.55199 | 23.81071 | 36077 ft | 401 kts | 348° |
| 2026-05-06 10:36 | 39.60717 | 23.80035 | 36069 ft | 400 kts | 348° |
| 2026-05-06 10:36 | 39.66226 | 23.78995 | 36073 ft | 400 kts | 348° |
| 2026-05-06 10:37 | 39.71726 | 23.77957 | 36075 ft | 399 kts | 348° |
| 2026-05-06 10:37 | 39.77225 | 23.76922 | 36073 ft | 399 kts | 348° |
| 2026-05-06 10:38 | 39.82682 | 23.75883 | 36074 ft | 399 kts | 348° |
| 2026-05-06 10:38 | 39.88174 | 23.74831 | 36076 ft | 399 kts | 348° |
| 2026-05-06 10:39 | 39.93657 | 23.73786 | 36080 ft | 398 kts | 348° |
| 2026-05-06 10:39 | 39.99138 | 23.72747 | 36080 ft | 398 kts | 348° |
| 2026-05-06 10:40 | 40.04619 | 23.71704 | 36081 ft | 398 kts | 348° |
| 2026-05-06 10:40 | 40.10062 | 23.70669 | 36082 ft | 398 kts | 348° |
| 2026-05-06 10:41 | 40.15543 | 23.69624 | 36083 ft | 398 kts | 348° |
| 2026-05-06 10:41 | 40.21030 | 23.68577 | 36084 ft | 399 kts | 348° |
| 2026-05-06 10:42 | 40.26542 | 23.67512 | 36084 ft | 401 kts | 348° |
| 2026-05-06 10:42 | 40.32071 | 23.66443 | 36084 ft | 402 kts | 348° |
| 2026-05-06 10:43 | 40.37546 | 23.65393 | 36102 ft | 399 kts | 348° |
| 2026-05-06 10:44 | 40.45780 | 23.63800 | 36096 ft | 399 kts | 348° |
| 2026-05-06 10:44 | 40.51281 | 23.62729 | 36087 ft | 400 kts | 348° |
| 2026-05-06 10:45 | 40.56787 | 23.61670 | 36086 ft | 400 kts | 348° |
| 2026-05-06 10:45 | 40.62297 | 23.60606 | 36085 ft | 400 kts | 348° |
| 2026-05-06 10:46 | 40.67781 | 23.59544 | 36082 ft | 401 kts | 348° |
| 2026-05-06 10:46 | 40.73302 | 23.58469 | 36084 ft | 401 kts | 348° |
| 2026-05-06 10:47 | 40.78823 | 23.57391 | 36085 ft | 401 kts | 348° |
| 2026-05-06 10:47 | 40.84350 | 23.56309 | 36081 ft | 402 kts | 348° |
| 2026-05-06 10:48 | 40.89888 | 23.55223 | 36082 ft | 402 kts | 348° |
| 2026-05-06 10:48 | 40.95414 | 23.54140 | 36083 ft | 402 kts | 348° |
| 2026-05-06 10:49 | 41.00909 | 23.53065 | 36083 ft | 402 kts | 348° |
| 2026-05-06 10:49 | 41.06444 | 23.51975 | 36081 ft | 402 kts | 348° |
| 2026-05-06 10:50 | 41.11978 | 23.50888 | 36082 ft | 402 kts | 348° |
| 2026-05-06 10:50 | 41.17506 | 23.49797 | 36084 ft | 401 kts | 348° |
| 2026-05-06 10:51 | 41.23006 | 23.48706 | 36084 ft | 400 kts | 348° |
| 2026-05-06 10:51 | 41.28533 | 23.47677 | 36075 ft | 405 kts | 349° |
| 2026-05-06 10:52 | 41.34124 | 23.46684 | 36075 ft | 405 kts | 349° |
| 2026-05-06 10:52 | 41.39715 | 23.45669 | 36075 ft | 406 kts | 350° |
| 2026-05-06 10:53 | 41.45402 | 23.45294 | 36071 ft | 411 kts | 354° |
| 2026-05-06 10:53 | 41.51111 | 23.45009 | 36073 ft | 410 kts | 354° |
| 2026-05-06 10:54 | 41.56804 | 23.44724 | 36074 ft | 409 kts | 354° |
| 2026-05-06 10:54 | 41.62445 | 23.44439 | 36074 ft | 408 kts | 354° |
| 2026-05-06 10:54 | 41.65285 | 23.44293 | 35865 ft | 408 kts | 354° |
| 2026-05-06 10:55 | 41.68126 | 23.44148 | 35065 ft | 411 kts | 354° |
| 2026-05-06 10:55 | 41.70980 | 23.44005 | 34281 ft | 409 kts | 354° |
| 2026-05-06 10:55 | 41.73785 | 23.43866 | 33843 ft | 398 kts | 354° |
| 2026-05-06 10:55 | 41.76533 | 23.43731 | 33134 ft | 394 kts | 354° |
| 2026-05-06 10:56 | 41.79296 | 23.43590 | 32013 ft | 400 kts | 354° |
| 2026-05-06 10:56 | 41.82107 | 23.43443 | 30755 ft | 409 kts | 354° |
| 2026-05-06 10:56 | 41.84942 | 23.43294 | 29490 ft | 416 kts | 355° |
| 2026-05-06 10:56 | 41.87854 | 23.43141 | 28199 ft | 422 kts | 355° |
| 2026-05-06 10:57 | 41.90798 | 23.42994 | 27285 ft | 420 kts | 355° |
| 2026-05-06 10:57 | 41.93654 | 23.42860 | 27014 ft | 402 kts | 355° |
| 2026-05-06 10:57 | 41.96408 | 23.42733 | 26579 ft | 391 kts | 355° |
| 2026-05-06 10:57 | 41.99106 | 23.42603 | 25878 ft | 387 kts | 355° |
| 2026-05-06 10:58 | 42.01800 | 23.42465 | 25104 ft | 387 kts | 355° |
| 2026-05-06 10:58 | 42.04481 | 23.42323 | 24354 ft | 385 kts | 355° |
| 2026-05-06 10:58 | 42.07157 | 23.42181 | 23628 ft | 384 kts | 355° |
| 2026-05-06 10:58 | 42.09778 | 23.42042 | 22946 ft | 381 kts | 355° |
| 2026-05-06 10:59 | 42.12422 | 23.41904 | 22238 ft | 379 kts | 356° |
| 2026-05-06 10:59 | 42.15052 | 23.41770 | 21445 ft | 379 kts | 356° |
| 2026-05-06 10:59 | 42.17691 | 23.41636 | 20654 ft | 379 kts | 356° |
| 2026-05-06 10:59 | 42.20316 | 23.41505 | 19945 ft | 376 kts | 356° |
| 2026-05-06 11:00 | 42.22924 | 23.41370 | 19275 ft | 373 kts | 356° |
| 2026-05-06 11:00 | 42.25504 | 23.41235 | 18625 ft | 370 kts | 356° |
| 2026-05-06 11:00 | 42.28039 | 23.40786 | 17965 ft | 366 kts | 346° |
| 2026-05-06 11:00 | 42.30429 | 23.39676 | 17299 ft | 363 kts | 334° |
| 2026-05-06 11:01 | 42.32564 | 23.37973 | 16649 ft | 360 kts | 323° |
| 2026-05-06 11:01 | 42.34566 | 23.35961 | 16003 ft | 358 kts | 323° |
| 2026-05-06 11:01 | 42.36561 | 23.33963 | 15366 ft | 355 kts | 323° |
| 2026-05-06 11:01 | 42.38539 | 23.31985 | 14731 ft | 353 kts | 323° |
| 2026-05-06 11:02 | 42.40511 | 23.30016 | 14098 ft | 351 kts | 323° |
| 2026-05-06 11:02 | 42.42470 | 23.28056 | 13501 ft | 348 kts | 323° |
| 2026-05-06 11:02 | 42.44378 | 23.26145 | 13303 ft | 334 kts | 323° |
| 2026-05-06 11:02 | 42.46200 | 23.24320 | 13219 ft | 318 kts | 323° |
| 2026-05-06 11:03 | 42.47933 | 23.22581 | 13144 ft | 303 kts | 323° |
| 2026-05-06 11:03 | 42.49594 | 23.20911 | 13068 ft | 291 kts | 322° |
| 2026-05-06 11:03 | 42.51190 | 23.19305 | 12992 ft | 281 kts | 322° |
| 2026-05-06 11:03 | 42.52718 | 23.17769 | 12908 ft | 273 kts | 322° |
| 2026-05-06 11:04 | 42.54229 | 23.16248 | 12652 ft | 270 kts | 322° |
| 2026-05-06 11:04 | 42.55739 | 23.14728 | 12294 ft | 271 kts | 322° |
| 2026-05-06 11:04 | 42.57251 | 23.13204 | 11947 ft | 271 kts | 322° |
| 2026-05-06 11:04 | 42.58765 | 23.11676 | 11624 ft | 271 kts | 322° |
| 2026-05-06 11:05 | 42.60267 | 23.10147 | 11320 ft | 270 kts | 320° |
| 2026-05-06 11:05 | 42.61597 | 23.08364 | 11022 ft | 268 kts | 308° |
| 2026-05-06 11:05 | 42.62617 | 23.06266 | 10751 ft | 265 kts | 296° |
| 2026-05-06 11:05 | 42.63292 | 23.03988 | 10614 ft | 256 kts | 285° |
| 2026-05-06 11:06 | 42.63621 | 23.01670 | 10476 ft | 246 kts | 274° |
| 2026-05-06 11:06 | 42.63746 | 22.99377 | 10245 ft | 241 kts | 273° |
| 2026-05-06 11:06 | 42.63870 | 22.97111 | 9933 ft | 241 kts | 274° |
| 2026-05-06 11:06 | 42.63995 | 22.94861 | 9722 ft | 235 kts | 274° |
| 2026-05-06 11:07 | 42.64117 | 22.92691 | 9593 ft | 227 kts | 274° |
| 2026-05-06 11:07 | 42.64234 | 22.90613 | 9467 ft | 220 kts | 273° |
| 2026-05-06 11:07 | 42.64350 | 22.88575 | 9337 ft | 213 kts | 273° |
| 2026-05-06 11:07 | 42.64462 | 22.86591 | 9190 ft | 208 kts | 273° |
| 2026-05-06 11:08 | 42.64745 | 22.84685 | 8978 ft | 207 kts | 295° |
| 2026-05-06 11:08 | 42.65640 | 22.83175 | 8734 ft | 208 kts | 326° |
| 2026-05-06 11:08 | 42.66984 | 22.82505 | 8473 ft | 209 kts | 358° |
| 2026-05-06 11:08 | 42.68401 | 22.82869 | 8213 ft | 210 kts | 29° |
| 2026-05-06 11:09 | 42.69472 | 22.84167 | 7987 ft | 207 kts | 61° |
| 2026-05-06 11:09 | 42.69942 | 22.85971 | 7854 ft | 201 kts | 80° |
| 2026-05-06 11:09 | 42.70231 | 22.87821 | 7720 ft | 200 kts | 79° |
| 2026-05-06 11:09 | 42.70589 | 22.89661 | 7597 ft | 203 kts | 72° |